Details From FACT - Cape Town International
To FYLZ - Luderitz
Flight Number -
Tags Generated
Created
Modified
Stats Distance 470 nm / 871 km
Max Altitude 0 ft / 0 m
Waypoints 2
Social Downloads 0
Likes 0
Share VATSIM

Download

Looking for another format? Having issues loading an existing format? Contact us
Advertisement - Login to hide

Notes

Generated

Route

FACT FYLZ

ID Type Via Altitude Latitude Longitude Leg Dist Tot Dist Heading (true) Name
O FACT APT - 0 ft / 0 m -33.96149˚ 18.59772˚ - 0 nm - -
O FYLZ APT - 0 ft / 0 m -26.68727˚ 15.24203˚ 470 nm 470 nm 337° / 339° -

Altitude Profile

Advertisement - Login to hide

Weather


0- 5 10 15 20 25 30 35+ Temperature / ° C

Clouds and Precipitation
Forecast for 2017-12-13 00:00 UTC. Updated 13 minutes ago

Ground ~20,000 ft ~40,000 ft Winds

FACT

Details ICAO FACT (CPT)
Name Cape Town International
Region South Africa
Timezone Africa/Johannesburg (UTC+2.0)
Stats Elevation 151 ft / 46 m (AMSL)
Location -33.970501° 18.604405°
Runways 2
Magnetic Variation 25.343° W

METAR

FACT 122300Z 18010KT 9999 FEW020 15/11 Q1016 NOSIG

Decode

TAF

Not found

Departure Runways

ID Width Length Bearing (true) Bearing (mag) Surface Threshold Offset Overrun Length
01 200 ft / 61 m 10,527 ft / 3,209 m 345.27° 10.61° Asphalt 0 ft / 0 m 195 ft / 59 m
16 151 ft / 46 m 5,586 ft / 1,703 m 135.35° 160.69° Asphalt 300 ft / 91 m 0 ft / 0 m
19 200 ft / 61 m 10,527 ft / 3,209 m 165.27° 190.61° Asphalt 0 ft / 0 m 195 ft / 59 m
34 151 ft / 46 m 5,586 ft / 1,703 m 315.35° 340.69° Asphalt 300 ft / 91 m 0 ft / 0 m

FYLZ

Details ICAO FYLZ (LUD)
Name LUDERITZ
Region Namibia
Timezone Africa/Windhoek (UTC+2.0)
Stats Elevation 457 ft / 139 m (AMSL)
Location -26.685936° 15.246039°
Runways 2
Magnetic Variation 16.895° W

METAR

FYLZ 122300Z AUTO 17017KT //// // ////// 17/07 Q1012

Decode

TAF

Not found

Destination Runways

ID Width Length Bearing (true) Bearing (mag) Surface Threshold Offset Overrun Length
04 98 ft / 30 m 6,038 ft / 1,840 m 16.86° 33.76° Asphalt 0 ft / 0 m 0 ft / 0 m
12 98 ft / 30 m 3,940 ft / 1,201 m 98.99° 115.89° Gravel 0 ft / 0 m 0 ft / 0 m
22 98 ft / 30 m 6,038 ft / 1,840 m 196.85° 213.75° Asphalt 0 ft / 0 m 0 ft / 0 m
30 98 ft / 30 m 3,940 ft / 1,201 m 278.98° 295.88° Gravel 0 ft / 0 m 0 ft / 0 m